Time;durP1;ratioP1;P1;durP2;ratioP2;P2;SDS_P1;SDS_P2;PMS_P1;PMS_P2;Temp;Humidity;BMP_temperature;BMP_pressure;BME280_temperature;BME280_humidity;BME280_pressure;Samples;Min_cycle;Max_cycle;Signal;HPM_P1;HPM_P2
2021/08/27 00:01:37;;;;;;;15.48;2.08;;;;;;;;;;4984776;28;20075;-63
2021/08/27 00:04:03;;;;;;;15.02;1.77;;;;;;;;;;4985322;28;20072;-64
2021/08/27 00:06:31;;;;;;;12.95;1.90;;;;;;;;;;4950762;28;20070;-64
2021/08/27 00:08:59;;;;;;;7.00;1.90;;;;;;;;;;4981533;28;20060;-62
2021/08/27 00:11:28;;;;;;;14.30;1.80;;;;;;;;;;4968257;28;20041;-64
2021/08/27 00:13:53;;;;;;;7.80;1.50;;;;;;;;;;4968525;28;20030;-62
2021/08/27 00:16:19;;;;;;;12.52;1.95;;;;;;;;;;4967904;28;20065;-64
2021/08/27 00:18:49;;;;;;;11.52;1.55;;;;;;;;;;4980381;28;20041;-62
2021/08/27 00:21:15;;;;;;;7.53;1.73;;;;;;;;;;4986312;28;20108;-63
2021/08/27 00:23:43;;;;;;;7.90;1.75;;;;;;;;;;4982673;28;20022;-64
2021/08/27 00:26:11;;;;;;;13.90;1.73;;;;;;;;;;4967145;28;20030;-63
2021/08/27 00:28:36;;;;;;;6.35;1.70;;;;;;;;;;4983768;28;20044;-64
2021/08/27 00:31:04;;;;;;;8.32;1.85;;;;;;;;;;4947830;28;22057;-63
2021/08/27 00:33:34;;;;;;;16.27;1.98;;;;;;;;;;4965053;28;20025;-64
2021/08/27 00:36:02;;;;;;;7.93;1.48;;;;;;;;;;4986497;28;20037;-64
2021/08/27 00:38:28;;;;;;;13.63;2.17;;;;;;;;;;4966727;28;20428;-64
2021/08/27 00:40:54;;;;;;;12.52;2.05;;;;;;;;;;4984799;28;20045;-62
2021/08/27 00:43:21;;;;;;;6.90;1.95;;;;;;;;;;4970669;28;20722;-63
2021/08/27 00:45:52;;;;;;;15.93;2.15;;;;;;;;;;4982004;28;20018;-63
2021/08/27 00:48:17;;;;;;;11.38;1.88;;;;;;;;;;4986943;28;20072;-62
2021/08/27 00:50:47;;;;;;;12.27;1.65;;;;;;;;;;4953309;28;20045;-64
2021/08/27 00:53:15;;;;;;;10.07;1.70;;;;;;;;;;4951524;28;20029;-63
2021/08/27 00:55:44;;;;;;;4.95;1.40;;;;;;;;;;4984985;28;20049;-63
2021/08/27 00:58:16;;;;;;;18.02;1.98;;;;;;;;;;4983723;28;20022;-63
2021/08/27 01:00:48;;;;;;;12.13;1.73;;;;;;;;;;4971377;28;20030;-64
2021/08/27 01:03:14;;;;;;;10.77;2.03;;;;;;;;;;4985331;28;20060;-63
2021/08/27 01:05:45;;;;;;;9.82;1.58;;;;;;;;;;4954541;28;20033;-64
2021/08/27 01:08:28;;;;;;;4.60;1.38;;;;;;;;;;4984279;28;20034;-64
2021/08/27 01:11:03;;;;;;;6.82;1.50;;;;;;;;;;4984171;28;20030;-63
2021/08/27 01:13:33;;;;;;;7.57;1.52;;;;;;;;;;4984590;28;20088;-62
2021/08/27 01:16:02;;;;;;;9.45;1.95;;;;;;;;;;4966042;28;20529;-64
2021/08/27 01:18:36;;;;;;;8.30;2.03;;;;;;;;;;4967654;28;20065;-64
2021/08/27 01:21:20;;;;;;;9.02;1.25;;;;;;;;;;4983287;28;20495;-63
2021/08/27 01:23:49;;;;;;;12.55;1.88;;;;;;;;;;4946948;28;20441;-62
2021/08/27 01:26:17;;;;;;;16.50;1.92;;;;;;;;;;4985944;28;20030;-62
2021/08/27 01:28:46;;;;;;;5.95;1.45;;;;;;;;;;4984536;28;20172;-62
2021/08/27 01:31:27;;;;;;;10.35;1.80;;;;;;;;;;4988120;28;20072;-60
2021/08/27 01:34:07;;;;;;;7.75;1.25;;;;;;;;;;4983064;28;20045;-61
2021/08/27 01:36:36;;;;;;;10.80;1.65;;;;;;;;;;4984221;28;20389;-62
2021/08/27 01:39:06;;;;;;;10.73;1.60;;;;;;;;;;4985786;28;20029;-63
2021/08/27 01:41:35;;;;;;;9.90;1.30;;;;;;;;;;4969693;28;22737;-62
2021/08/27 01:44:05;;;;;;;12.93;1.80;;;;;;;;;;4982873;28;20046;-63
2021/08/27 01:46:36;;;;;;;6.97;1.50;;;;;;;;;;4967533;28;20034;-64
2021/08/27 01:49:07;;;;;;;8.82;1.30;;;;;;;;;;4986442;28;20799;-63
2021/08/27 01:51:36;;;;;;;10.45;1.48;;;;;;;;;;4983641;28;20113;-64
2021/08/27 01:54:02;;;;;;;11.13;1.48;;;;;;;;;;4952075;28;20034;-63
2021/08/27 01:56:30;;;;;;;8.35;1.80;;;;;;;;;;4968467;28;20129;-62
2021/08/27 01:58:59;;;;;;;14.13;1.83;;;;;;;;;;4984776;28;20038;-65
2021/08/27 02:01:25;;;;;;;17.88;1.80;;;;;;;;;;4983011;28;20029;-62
2021/08/27 02:03:54;;;;;;;6.95;1.63;;;;;;;;;;4964169;28;20124;-63
2021/08/27 02:06:20;;;;;;;12.77;1.48;;;;;;;;;;4982040;28;20052;-62
2021/08/27 02:08:50;;;;;;;12.18;1.77;;;;;;;;;;4982401;28;20030;-60
2021/08/27 02:11:20;;;;;;;6.60;1.38;;;;;;;;;;4981068;28;20530;-62
2021/08/27 02:13:47;;;;;;;8.27;1.70;;;;;;;;;;4981816;28;20113;-63
2021/08/27 02:16:15;;;;;;;7.70;1.27;;;;;;;;;;4984340;28;20038;-63
2021/08/27 02:18:41;;;;;;;6.20;1.13;;;;;;;;;;4984321;28;20159;-63
2021/08/27 02:21:07;;;;;;;6.60;1.42;;;;;;;;;;4982239;28;20037;-64
2021/08/27 02:23:34;;;;;;;5.95;1.60;;;;;;;;;;4981073;28;20037;-61
2021/08/27 02:26:00;;;;;;;3.63;0.98;;;;;;;;;;4964802;28;20085;-61
2021/08/27 02:28:26;;;;;;;8.63;1.35;;;;;;;;;;4966543;28;20026;-62
2021/08/27 02:30:55;;;;;;;5.03;1.30;;;;;;;;;;4988083;28;20041;-62
2021/08/27 02:33:26;;;;;;;10.25;1.27;;;;;;;;;;4986019;28;20024;-65
2021/08/27 02:35:53;;;;;;;6.32;1.60;;;;;;;;;;4987060;28;20069;-60
2021/08/27 02:38:25;;;;;;;7.30;1.65;;;;;;;;;;4986789;28;20034;-62
2021/08/27 02:40:51;;;;;;;4.68;0.77;;;;;;;;;;4973222;28;20088;-62
2021/08/27 02:43:16;;;;;;;4.22;1.13;;;;;;;;;;4985729;28;20029;-62
2021/08/27 02:45:46;;;;;;;7.10;1.10;;;;;;;;;;4958133;28;20025;-63
2021/08/27 02:48:15;;;;;;;10.25;1.67;;;;;;;;;;4986574;28;20125;-61
2021/08/27 02:50:44;;;;;;;14.65;1.27;;;;;;;;;;4970481;28;20040;-61
2021/08/27 02:53:10;;;;;;;11.15;1.40;;;;;;;;;;4989411;28;20038;-63
2021/08/27 02:55:37;;;;;;;11.15;1.65;;;;;;;;;;4985791;28;20049;-62
2021/08/27 02:58:12;;;;;;;9.82;1.27;;;;;;;;;;4985171;28;20038;-61
2021/08/27 03:00:50;;;;;;;7.28;1.58;;;;;;;;;;4983757;28;20383;-61
2021/08/27 03:03:16;;;;;;;11.05;1.55;;;;;;;;;;4987624;28;20049;-61
2021/08/27 03:05:44;;;;;;;9.05;2.00;;;;;;;;;;4986286;28;20068;-62
2021/08/27 03:08:16;;;;;;;12.60;2.70;;;;;;;;;;4972391;28;20829;-62
2021/08/27 03:10:57;;;;;;;7.47;1.85;;;;;;;;;;4972882;28;20053;-61
2021/08/27 03:13:32;;;;;;;11.43;2.03;;;;;;;;;;4983383;28;21159;-62
2021/08/27 03:16:00;;;;;;;13.18;1.90;;;;;;;;;;4988581;28;20046;-61
2021/08/27 03:18:27;;;;;;;14.45;2.83;;;;;;;;;;4966336;28;20065;-62
2021/08/27 03:20:56;;;;;;;4.88;1.15;;;;;;;;;;4971719;28;20104;-62
2021/08/27 03:23:22;;;;;;;9.55;1.77;;;;;;;;;;4987814;28;20156;-62
2021/08/27 03:25:50;;;;;;;15.65;2.13;;;;;;;;;;4986223;28;20100;-62
2021/08/27 03:28:19;;;;;;;8.57;1.50;;;;;;;;;;4974121;28;20025;-62
2021/08/27 03:30:51;;;;;;;17.15;1.80;;;;;;;;;;4966816;28;20049;-59
2021/08/27 03:33:21;;;;;;;23.00;2.47;;;;;;;;;;4969003;28;20034;-60
2021/08/27 03:35:50;;;;;;;9.55;1.98;;;;;;;;;;4973776;28;20400;-60
2021/08/27 03:38:19;;;;;;;15.20;2.25;;;;;;;;;;4985701;28;20030;-60
2021/08/27 03:40:45;;;;;;;7.00;1.65;;;;;;;;;;4987478;28;20088;-61
2021/08/27 03:43:12;;;;;;;10.23;1.98;;;;;;;;;;4969337;28;21982;-62
2021/08/27 03:45:40;;;;;;;14.10;1.80;;;;;;;;;;4969172;28;20097;-63
2021/08/27 03:48:06;;;;;;;10.43;1.85;;;;;;;;;;4987039;28;20137;-63
2021/08/27 03:50:32;;;;;;;20.40;1.88;;;;;;;;;;4985095;28;20123;-62
2021/08/27 03:53:00;;;;;;;10.57;1.98;;;;;;;;;;4972434;28;20039;-63
2021/08/27 03:55:27;;;;;;;17.15;2.35;;;;;;;;;;4987056;28;20057;-64
2021/08/27 03:57:55;;;;;;;10.95;1.77;;;;;;;;;;4972941;28;20133;-62
2021/08/27 04:00:25;;;;;;;16.10;1.70;;;;;;;;;;4987555;28;20570;-62
2021/08/27 04:02:51;;;;;;;11.48;1.98;;;;;;;;;;4979104;28;20029;-62
2021/08/27 04:05:20;;;;;;;14.93;2.33;;;;;;;;;;4976835;28;20045;-61
2021/08/27 04:07:47;;;;;;;8.88;1.70;;;;;;;;;;4974045;28;20113;-62
2021/08/27 04:10:14;;;;;;;9.52;1.85;;;;;;;;;;4962411;28;20515;-65
2021/08/27 04:12:40;;;;;;;14.32;2.60;;;;;;;;;;4959641;28;20164;-63
2021/08/27 04:15:07;;;;;;;16.02;2.50;;;;;;;;;;4975092;28;20042;-64
2021/08/27 04:17:34;;;;;;;30.35;2.90;;;;;;;;;;4956919;28;20160;-62
2021/08/27 04:20:02;;;;;;;18.38;2.40;;;;;;;;;;4942679;28;20127;-63
2021/08/27 04:22:28;;;;;;;22.02;3.33;;;;;;;;;;4967119;28;20042;-66
2021/08/27 04:24:53;;;;;;;15.23;2.97;;;;;;;;;;4962726;28;20025;-63
2021/08/27 04:27:19;;;;;;;16.48;2.17;;;;;;;;;;4960571;28;20100;-64
2021/08/27 04:29:50;;;;;;;13.50;2.10;;;;;;;;;;4963987;28;20360;-66
2021/08/27 04:32:16;;;;;;;9.57;2.00;;;;;;;;;;4959216;28;20127;-65
2021/08/27 04:34:41;;;;;;;26.15;2.42;;;;;;;;;;4964643;28;20636;-64
2021/08/27 04:37:07;;;;;;;13.52;1.90;;;;;;;;;;4960360;28;22178;-64
2021/08/27 04:39:32;;;;;;;9.35;1.70;;;;;;;;;;4976922;28;20041;-65
2021/08/27 04:41:58;;;;;;;12.70;1.33;;;;;;;;;;4964648;28;20046;-65
2021/08/27 04:44:26;;;;;;;16.02;1.83;;;;;;;;;;4978686;28;21056;-65
2021/08/27 04:46:52;;;;;;;4.63;1.48;;;;;;;;;;4976234;28;20934;-63
2021/08/27 04:49:20;;;;;;;8.98;1.70;;;;;;;;;;4976542;28;20916;-64
2021/08/27 04:51:48;;;;;;;6.18;1.70;;;;;;;;;;4957554;28;20034;-62
2021/08/27 04:54:16;;;;;;;11.88;2.35;;;;;;;;;;4959733;28;20132;-65
2021/08/27 04:56:41;;;;;;;6.05;1.35;;;;;;;;;;4948722;28;20126;-65
2021/08/27 04:59:12;;;;;;;6.03;1.42;;;;;;;;;;4963095;28;20108;-67
2021/08/27 05:01:40;;;;;;;14.77;3.10;;;;;;;;;;4948091;28;20882;-65
2021/08/27 05:04:09;;;;;;;13.93;2.00;;;;;;;;;;4975251;28;20608;-67
2021/08/27 05:06:37;;;;;;;5.13;0.90;;;;;;;;;;4960228;28;20034;-65
2021/08/27 05:09:04;;;;;;;13.18;1.77;;;;;;;;;;4981657;28;20062;-67
2021/08/27 05:11:32;;;;;;;10.27;2.22;;;;;;;;;;4985806;28;20406;-66
2021/08/27 05:14:00;;;;;;;10.02;2.22;;;;;;;;;;4972386;28;20110;-66
2021/08/27 05:16:26;;;;;;;4.65;1.38;;;;;;;;;;4971334;28;20050;-66
2021/08/27 05:18:51;;;;;;;9.77;1.48;;;;;;;;;;4959721;28;20041;-69
2021/08/27 05:21:19;;;;;;;11.85;1.27;;;;;;;;;;4974559;28;20026;-65
2021/08/27 05:23:45;;;;;;;9.23;1.95;;;;;;;;;;4976627;28;20038;-66
2021/08/27 05:26:12;;;;;;;9.82;1.60;;;;;;;;;;4959297;28;20623;-65
2021/08/27 05:28:38;;;;;;;11.13;1.40;;;;;;;;;;4962056;28;20496;-63
2021/08/27 05:31:10;;;;;;;6.97;1.20;;;;;;;;;;4978608;28;20033;-65
2021/08/27 05:33:37;;;;;;;8.82;1.00;;;;;;;;;;4967390;28;20107;-65
2021/08/27 05:36:05;;;;;;;2.30;0.85;;;;;;;;;;4987103;28;20166;-65
2021/08/27 05:38:31;;;;;;;11.07;1.52;;;;;;;;;;4944367;28;20952;-65
2021/08/27 05:40:56;;;;;;;6.50;0.95;;;;;;;;;;4951821;28;20207;-64
2021/08/27 05:43:21;;;;;;;11.07;1.52;;;;;;;;;;4957396;28;20045;-66
2021/08/27 05:45:49;;;;;;;4.10;1.05;;;;;;;;;;4973290;28;20033;-64
2021/08/27 05:48:19;;;;;;;13.45;1.48;;;;;;;;;;4962374;28;20037;-66
2021/08/27 05:50:50;;;;;;;5.55;1.27;;;;;;;;;;4962369;28;20046;-66
2021/08/27 05:53:16;;;;;;;10.43;1.70;;;;;;;;;;4977172;28;20421;-66
2021/08/27 05:55:41;;;;;;;4.93;1.23;;;;;;;;;;4957266;28;20114;-65
2021/08/27 05:58:09;;;;;;;8.50;1.73;;;;;;;;;;4941322;28;20937;-66
2021/08/27 06:00:35;;;;;;;7.70;0.88;;;;;;;;;;4945698;28;20033;-66
2021/08/27 06:03:03;;;;;;;11.95;1.48;;;;;;;;;;4982815;28;20972;-66
2021/08/27 06:05:29;;;;;;;7.90;1.55;;;;;;;;;;4966096;28;20052;-66
2021/08/27 06:07:57;;;;;;;3.22;0.90;;;;;;;;;;4960466;28;20029;-66
2021/08/27 06:10:25;;;;;;;11.68;1.48;;;;;;;;;;4961506;28;20033;-66
2021/08/27 06:12:50;;;;;;;11.40;2.03;;;;;;;;;;4991359;28;20825;-64
2021/08/27 06:15:16;;;;;;;12.68;1.15;;;;;;;;;;4975347;28;20044;-63
2021/08/27 06:17:44;;;;;;;4.75;1.30;;;;;;;;;;4948236;28;20116;-64
2021/08/27 06:20:09;;;;;;;10.02;1.67;;;;;;;;;;4963805;28;20128;-64
2021/08/27 06:22:39;;;;;;;8.95;1.77;;;;;;;;;;4979316;28;20041;-65
2021/08/27 06:25:07;;;;;;;8.02;1.25;;;;;;;;;;4965159;28;20030;-66
2021/08/27 06:27:33;;;;;;;32.17;2.65;;;;;;;;;;4982324;28;20049;-59
2021/08/27 06:30:05;;;;;;;6.43;1.20;;;;;;;;;;4948000;28;20403;-59
2021/08/27 06:32:34;;;;;;;7.95;1.70;;;;;;;;;;4981015;28;20754;-59
2021/08/27 06:35:02;;;;;;;6.10;1.80;;;;;;;;;;4982667;28;20468;-60
2021/08/27 06:40:14;;;;;;;8.55;1.23;;;;;;;;;;4964829;28;20042;-59
2021/08/27 06:42:42;;;;;;;4.20;0.65;;;;;;;;;;4981486;28;20088;-61
2021/08/27 06:45:10;;;;;;;13.40;1.00;;;;;;;;;;4961896;28;20794;-61
2021/08/27 06:47:36;;;;;;;3.35;0.80;;;;;;;;;;4980682;28;20693;-61
2021/08/27 06:50:02;;;;;;;10.60;1.55;;;;;;;;;;4961696;28;20206;-61
2021/08/27 06:52:27;;;;;;;9.13;0.70;;;;;;;;;;4978582;28;20026;-63
2021/08/27 06:54:58;;;;;;;10.77;1.20;;;;;;;;;;4965368;28;20147;-62
2021/08/27 06:57:24;;;;;;;5.88;1.48;;;;;;;;;;4961603;28;20022;-63
2021/08/27 06:59:49;;;;;;;11.05;1.30;;;;;;;;;;4970190;28;20049;-62
2021/08/27 07:02:15;;;;;;;7.40;1.30;;;;;;;;;;4983605;28;20706;-62
2021/08/27 07:04:40;;;;;;;8.75;1.10;;;;;;;;;;4963066;28;20763;-61
2021/08/27 07:07:06;;;;;;;5.60;1.05;;;;;;;;;;4978561;28;20042;-62
2021/08/27 07:09:32;;;;;;;4.43;1.08;;;;;;;;;;4973725;28;20042;-63
2021/08/27 07:11:57;;;;;;;4.63;0.88;;;;;;;;;;4961088;28;20041;-62
2021/08/27 07:14:23;;;;;;;17.33;1.45;;;;;;;;;;4975791;28;20033;-63
2021/08/27 07:16:51;;;;;;;83.15;6.22;;;;;;;;;;4986208;28;20060;-58
2021/08/27 07:19:16;;;;;;;6.78;1.60;;;;;;;;;;4961303;28;20037;-60
2021/08/27 07:21:41;;;;;;;3.17;0.75;;;;;;;;;;4962007;28;20362;-60
2021/08/27 07:24:09;;;;;;;6.05;0.95;;;;;;;;;;4972640;28;20465;-59
2021/08/27 07:26:37;;;;;;;15.02;1.20;;;;;;;;;;4985788;28;20390;-59
2021/08/27 07:29:05;;;;;;;13.45;1.58;;;;;;;;;;4979474;28;20946;-58
2021/08/27 07:31:30;;;;;;;6.65;1.38;;;;;;;;;;4961540;28;20048;-59
2021/08/27 07:33:58;;;;;;;14.73;1.45;;;;;;;;;;4957799;28;20141;-58
2021/08/27 07:36:26;;;;;;;6.80;1.13;;;;;;;;;;4988063;28;20880;-58
2021/08/27 07:38:51;;;;;;;11.38;1.25;;;;;;;;;;4978120;28;20040;-58
2021/08/27 07:41:19;;;;;;;12.10;1.23;;;;;;;;;;4978259;28;20037;-59
2021/08/27 07:43:49;;;;;;;5.30;1.50;;;;;;;;;;4969152;28;20018;-60
2021/08/27 07:46:14;;;;;;;7.68;1.42;;;;;;;;;;4973121;28;20045;-59
2021/08/27 07:48:40;;;;;;;11.32;1.75;;;;;;;;;;4972667;28;20063;-60
2021/08/27 07:51:06;;;;;;;10.23;2.25;;;;;;;;;;4970861;28;20153;-60
2021/08/27 07:53:32;;;;;;;11.98;1.48;;;;;;;;;;4990229;28;20026;-60
2021/08/27 07:56:00;;;;;;;10.95;1.60;;;;;;;;;;4968612;28;20030;-60
2021/08/27 07:58:28;;;;;;;11.77;1.40;;;;;;;;;;4962281;28;20045;-60
2021/08/27 08:00:58;;;;;;;7.97;1.75;;;;;;;;;;4982871;28;20140;-60
2021/08/27 08:03:24;;;;;;;4.70;1.10;;;;;;;;;;4946476;28;20651;-60
2021/08/27 08:05:50;;;;;;;10.65;1.27;;;;;;;;;;4963591;28;20029;-61
2021/08/27 08:08:15;;;;;;;4.18;1.00;;;;;;;;;;4944146;28;20048;-61
2021/08/27 08:10:40;;;;;;;5.00;1.30;;;;;;;;;;4962264;28;20037;-62
2021/08/27 08:13:11;;;;;;;7.10;1.08;;;;;;;;;;4965900;28;20042;-62
2021/08/27 08:15:39;;;;;;;5.90;1.45;;;;;;;;;;4988252;28;20120;-63
2021/08/27 08:18:04;;;;;;;5.15;1.15;;;;;;;;;;4965987;28;20030;-62
2021/08/27 08:20:32;;;;;;;4.15;1.50;;;;;;;;;;4956317;28;20033;-63
2021/08/27 08:23:00;;;;;;;8.95;1.33;;;;;;;;;;4958056;28;20115;-63
2021/08/27 08:25:28;;;;;;;10.30;1.73;;;;;;;;;;4961785;28;21263;-64
2021/08/27 08:27:55;;;;;;;3.88;1.40;;;;;;;;;;4974521;28;20133;-62
2021/08/27 08:30:21;;;;;;;7.88;1.63;;;;;;;;;;4958543;28;20052;-63
2021/08/27 08:32:47;;;;;;;8.32;1.67;;;;;;;;;;4977715;28;20044;-72
2021/08/27 08:35:12;;;;;;;2.92;1.40;;;;;;;;;;4958439;28;20034;-63
2021/08/27 08:37:42;;;;;;;6.68;1.42;;;;;;;;;;4964858;28;20048;-66
2021/08/27 08:40:09;;;;;;;16.00;1.98;;;;;;;;;;4982297;28;20136;-62
2021/08/27 08:42:39;;;;;;;7.10;1.20;;;;;;;;;;4970932;28;20621;-62
2021/08/27 08:45:07;;;;;;;4.28;1.92;;;;;;;;;;4957746;28;20277;-64
2021/08/27 08:47:36;;;;;;;6.85;1.50;;;;;;;;;;4978977;28;20088;-64
2021/08/27 08:50:01;;;;;;;5.65;1.20;;;;;;;;;;4970997;28;20935;-64
2021/08/27 08:52:27;;;;;;;5.78;1.25;;;;;;;;;;4953521;28;20017;-63
2021/08/27 08:54:53;;;;;;;5.20;1.40;;;;;;;;;;4972253;28;20030;-63
2021/08/27 08:57:30;;;;;;;8.00;1.70;;;;;;;;;;4973277;28;20034;-64
2021/08/27 08:59:58;;;;;;;5.60;1.40;;;;;;;;;;4975301;28;20042;-64
2021/08/27 09:02:30;;;;;;;7.60;1.38;;;;;;;;;;4974979;28;20621;-63
2021/08/27 09:04:58;;;;;;;7.10;1.25;;;;;;;;;;4964005;28;20049;-64
2021/08/27 09:07:24;;;;;;;8.77;1.38;;;;;;;;;;4969654;28;20152;-65
2021/08/27 09:09:50;;;;;;;9.32;1.50;;;;;;;;;;4985586;28;20107;-66
2021/08/27 09:12:18;;;;;;;12.38;1.38;;;;;;;;;;4961753;28;21901;-65
2021/08/27 09:14:53;;;;;;;7.43;1.60;;;;;;;;;;4966210;28;20659;-61
2021/08/27 09:17:26;;;;;;;3.80;1.33;;;;;;;;;;4987271;28;21742;-68
2021/08/27 09:19:52;;;;;;;8.25;1.88;;;;;;;;;;4972059;28;22068;-67
2021/08/27 09:22:18;;;;;;;5.68;1.17;;;;;;;;;;4972100;28;20037;-67
2021/08/27 09:24:45;;;;;;;5.38;1.20;;;;;;;;;;4936354;28;20048;-64
2021/08/27 09:27:16;;;;;;;5.93;1.52;;;;;;;;;;4954370;28;20045;-64
2021/08/27 09:29:42;;;;;;;5.65;1.17;;;;;;;;;;4959877;28;20069;-63
2021/08/27 09:32:25;;;;;;;8.23;1.60;;;;;;;;;;4975142;28;20132;-67
2021/08/27 09:35:05;;;;;;;10.73;1.83;;;;;;;;;;4962483;28;20034;-65
2021/08/27 09:37:37;;;;;;;5.28;1.42;;;;;;;;;;4961227;28;20033;-66
2021/08/27 09:40:04;;;;;;;9.25;1.40;;;;;;;;;;4976368;28;20040;-62
2021/08/27 09:42:38;;;;;;;12.43;1.77;;;;;;;;;;4941692;28;20580;-67
2021/08/27 09:45:05;;;;;;;8.82;1.55;;;;;;;;;;4973296;28;20030;-66
2021/08/27 09:47:31;;;;;;;8.77;1.17;;;;;;;;;;4960026;28;20038;-64
2021/08/27 09:49:56;;;;;;;5.25;1.13;;;;;;;;;;4961827;28;21903;-64
2021/08/27 09:52:22;;;;;;;3.20;1.10;;;;;;;;;;4972060;28;20809;-67
2021/08/27 09:54:51;;;;;;;2.83;1.27;;;;;;;;;;4951534;28;20033;-65
2021/08/27 09:57:26;;;;;;;8.00;1.38;;;;;;;;;;4980084;28;20034;-67
2021/08/27 09:59:55;;;;;;;5.63;1.35;;;;;;;;;;4959255;28;20646;-66
2021/08/27 10:02:30;;;;;;;4.53;1.20;;;;;;;;;;4975690;28;20040;-68
2021/08/27 10:05:06;;;;;;;6.15;1.48;;;;;;;;;;6017756;22;20023;-88
2021/08/27 10:07:52;;;;;;;8.38;1.58;;;;;;;;;;5013493;28;20052;-86
2021/08/27 10:10:29;;;;;;;5.65;1.45;;;;;;;;;;5043270;28;20033;-89
2021/08/27 10:13:05;;;;;;;7.18;1.50;;;;;;;;;;5042124;28;20025;-91
2021/08/27 10:15:48;;;;;;;2.63;0.98;;;;;;;;;;5027390;28;20057;-88
2021/08/27 10:18:13;;;;;;;4.95;1.13;;;;;;;;;;5030924;28;20040;-88
2021/08/27 10:20:49;;;;;;;4.07;1.00;;;;;;;;;;5029716;28;21458;-88
2021/08/27 10:23:20;;;;;;;6.95;1.40;;;;;;;;;;5013275;28;20104;-87
2021/08/27 10:25:48;;;;;;;6.78;1.48;;;;;;;;;;5029132;28;20037;-87
2021/08/27 10:28:16;;;;;;;3.75;1.02;;;;;;;;;;5008646;28;20028;-87
2021/08/27 10:30:57;;;;;;;7.93;1.40;;;;;;;;;;5032199;28;20029;-88
2021/08/27 10:33:41;;;;;;;5.70;1.35;;;;;;;;;;5043470;28;20034;-86
2021/08/27 10:36:12;;;;;;;7.28;1.38;;;;;;;;;;5014684;28;20021;-92
2021/08/27 10:38:38;;;;;;;6.15;1.25;;;;;;;;;;5030660;28;20033;-88
2021/08/27 10:48:09;;;;;;;5.35;1.58;;;;;;;;;;4969786;28;20133;-88
2021/08/27 10:51:21;;;;;;;7.88;1.55;;;;;;;;;;4971652;28;20730;-91
2021/08/27 10:54:02;;;;;;;4.55;1.35;;;;;;;;;;4971684;28;20050;-86
2021/08/27 10:56:52;;;;;;;6.18;1.48;;;;;;;;;;5008747;28;20038;-88
2021/08/27 10:59:37;;;;;;;3.75;1.33;;;;;;;;;;4961452;28;20038;-89
2021/08/27 11:02:15;;;;;;;6.38;1.48;;;;;;;;;;5010098;28;20036;-91
2021/08/27 11:05:07;;;;;;;4.90;1.30;;;;;;;;;;5031131;28;20029;-91
2021/08/27 11:07:33;;;;;;;6.15;1.30;;;;;;;;;;5015988;28;20041;-89
2021/08/27 11:10:29;;;;;;;6.93;1.55;;;;;;;;;;5031848;28;20037;-91
2021/08/27 11:13:30;;;;;;;13.95;1.50;;;;;;;;;;5033792;28;20497;-89
2021/08/27 11:16:18;;;;;;;3.53;1.02;;;;;;;;;;5007362;28;20092;-89
2021/08/27 11:22:55;;;;;;;4.45;0.93;;;;;;;;;;4908820;29;20040;-89
2021/08/27 11:25:34;;;;;;;;;;;;;;;;;;;;;
2021/08/27 11:28:33;;;;;;;9.45;1.30;;;;;;;;;;5044782;28;20025;-88
2021/08/27 11:31:02;;;;;;;9.13;1.45;;;;;;;;;;5013426;28;20116;-88
2021/08/27 11:33:47;;;;;;;7.85;1.40;;;;;;;;;;5018926;28;20422;-89
2021/08/27 11:36:41;;;;;;;8.95;1.40;;;;;;;;;;5031383;28;20034;-88
2021/08/27 11:39:10;;;;;;;3.85;1.33;;;;;;;;;;5031263;28;20025;-90
2021/08/27 11:41:43;;;;;;;8.48;1.25;;;;;;;;;;5046076;28;20170;-88
2021/08/27 11:44:28;;;;;;;8.00;1.50;;;;;;;;;;5016546;28;20493;-93
2021/08/27 11:47:25;;;;;;;12.98;1.38;;;;;;;;;;5050218;28;20036;-88
2021/08/27 11:50:33;;;;;;;5.50;1.45;;;;;;;;;;5033291;28;20037;-92
2021/08/27 11:53:09;;;;;;;4.35;1.20;;;;;;;;;;5039184;28;20052;-89
2021/08/27 11:55:45;;;;;;;4.53;1.30;;;;;;;;;;5032440;28;20167;-87
2021/08/27 11:58:28;;;;;;;;;;;;;;;;;;;;;
2021/08/27 12:01:28;;;;;;;9.27;1.75;;;;;;;;;;5025704;28;20092;-91
2021/08/27 12:03:54;;;;;;;7.90;1.42;;;;;;;;;;5043366;28;20036;-91
2021/08/27 12:06:42;;;;;;;6.10;1.15;;;;;;;;;;5046232;28;20045;-91
2021/08/27 12:13:11;;;;;;;9.25;1.00;;;;;;;;;;5006540;28;20742;-89
2021/08/27 12:15:43;;;;;;;5.00;0.82;;;;;;;;;;4983592;28;20094;-88
2021/08/27 12:18:15;;;;;;;5.88;1.00;;;;;;;;;;5049815;28;20022;-87
2021/08/27 12:20:52;;;;;;;;;;;;;;;;;;;;;
2021/08/27 12:23:23;;;;;;;2.63;0.90;;;;;;;;;;5019530;28;20037;-88
2021/08/27 12:25:53;;;;;;;5.13;1.08;;;;;;;;;;5016299;28;20049;-89
2021/08/27 12:28:43;;;;;;;11.05;1.58;;;;;;;;;;5030375;28;20033;-88
2021/08/27 12:34:31;;;;;;;6.28;1.27;;;;;;;;;;5010869;28;20155;-86
2021/08/27 12:37:04;;;;;;;4.40;1.40;;;;;;;;;;5030880;28;20040;-89
2021/08/27 12:39:33;;;;;;;9.55;1.60;;;;;;;;;;5016030;28;20056;-88
2021/08/27 12:42:15;;;;;;;7.22;1.20;;;;;;;;;;5024336;28;20028;-88
2021/08/27 12:45:05;;;;;;;3.15;0.85;;;;;;;;;;5039604;28;20020;-87
2021/08/27 12:47:35;;;;;;;5.82;1.17;;;;;;;;;;5054638;28;20086;-87
2021/08/27 12:50:06;;;;;;;8.65;1.50;;;;;;;;;;5017155;28;20041;-89
2021/08/27 12:52:34;;;;;;;7.63;1.38;;;;;;;;;;5013553;28;20051;-88
2021/08/27 12:55:12;;;;;;;5.25;1.25;;;;;;;;;;5023290;28;20028;-88
2021/08/27 12:57:50;;;;;;;5.70;1.13;;;;;;;;;;5031183;28;20095;-87
2021/08/27 13:00:34;;;;;;;3.50;1.23;;;;;;;;;;5029276;28;20099;-86
2021/08/27 13:03:19;;;;;;;3.90;0.88;;;;;;;;;;5027620;28;20021;-87
2021/08/27 13:05:49;;;;;;;7.78;1.38;;;;;;;;;;5037846;28;20033;-89
2021/08/27 13:08:20;;;;;;;7.90;1.02;;;;;;;;;;5031011;28;20075;-91
2021/08/27 13:11:03;;;;;;;13.90;1.80;;;;;;;;;;5032607;28;20100;-89
2021/08/27 13:13:30;;;;;;;8.63;1.63;;;;;;;;;;5046891;28;20035;-88
2021/08/27 13:16:42;;;;;;;5.78;1.10;;;;;;;;;;5044507;28;20029;-92
2021/08/27 13:19:47;;;;;;;5.95;1.42;;;;;;;;;;5019248;28;20095;-89
2021/08/27 13:22:51;;;;;;;3.63;0.73;;;;;;;;;;5048145;28;20021;-87
2021/08/27 13:26:10;;;;;;;4.23;1.00;;;;;;;;;;5042593;28;20029;-88
2021/08/27 13:29:08;;;;;;;6.80;1.27;;;;;;;;;;4969190;28;20142;-89
2021/08/27 13:31:36;;;;;;;3.28;1.17;;;;;;;;;;5022305;28;20101;-89
2021/08/27 13:34:05;;;;;;;3.90;0.95;;;;;;;;;;5034209;28;20828;-88
2021/08/27 13:36:33;;;;;;;8.85;1.25;;;;;;;;;;5049174;28;20021;-88
2021/08/27 13:39:17;;;;;;;3.13;1.05;;;;;;;;;;5047234;28;20014;-91
2021/08/27 13:44:49;;;;;;;3.92;1.10;;;;;;;;;;5031324;28;20037;-88
2021/08/27 13:47:19;;;;;;;1.58;0.60;;;;;;;;;;5034226;28;20040;-89
2021/08/27 13:49:54;;;;;;;6.65;1.30;;;;;;;;;;5047980;28;20037;-89
2021/08/27 13:55:44;;;;;;;4.32;1.00;;;;;;;;;;5037667;28;20640;-87
2021/08/27 13:58:19;;;;;;;13.32;1.45;;;;;;;;;;5023895;28;20026;-88
2021/08/27 14:01:45;;;;;;;9.85;1.60;;;;;;;;;;4953271;28;20074;-89
2021/08/27 14:04:50;;;;;;;;;;;;;;;;;;;;;
2021/08/27 14:11:29;;;;;;;7.80;1.80;;;;;;;;;;5014011;28;20038;-88
2021/08/27 14:18:32;;;;;;;;;;;;;;;;;;;;;
2021/08/27 14:21:29;;;;;;;5.68;1.67;;;;;;;;;;4933959;28;20188;-88
2021/08/27 14:23:55;;;;;;;10.15;1.45;;;;;;;;;;4930920;28;20043;-87
2021/08/27 14:26:31;;;;;;;10.85;2.10;;;;;;;;;;4938926;28;20112;-90
2021/08/27 14:33:41;;;;;;;;;;;;;;;;;;;;;
2021/08/27 14:47:16;;;;;;;;;;;;;;;;;;;;;
2021/08/27 14:50:23;;;;;;;3.75;1.92;;;;;;;;;;4913560;29;20043;-89
2021/08/27 14:53:19;;;;;;;;;;;;;;;;;;;;;
2021/08/27 14:56:29;;;;;;;5.78;1.50;;;;;;;;;;4806561;29;20046;-86
2021/08/27 15:03:06;;;;;;;8.30;1.75;;;;;;;;;;4896229;29;20078;-85
2021/08/27 15:06:31;;;;;;;6.18;1.60;;;;;;;;;;4908532;29;20040;-89
2021/08/27 15:09:13;;;;;;;16.48;1.70;;;;;;;;;;4903521;29;20082;-91
2021/08/27 15:12:26;;;;;;;;;;;;;;;;;;;;;
2021/08/27 15:15:12;;;;;;;6.55;1.23;;;;;;;;;;4966308;28;20034;-89
2021/08/27 15:17:59;;;;;;;;;;;;;;;;;;;;;
2021/08/27 15:20:52;;;;;;;10.07;1.50;;;;;;;;;;4976545;28;20477;-90
2021/08/27 15:23:17;;;;;;;8.02;1.65;;;;;;;;;;4970390;28;20089;-90
2021/08/27 15:29:12;;;;;;;7.80;1.50;;;;;;;;;;5023538;28;20041;-89
2021/08/27 15:32:01;;;;;;;3.95;1.08;;;;;;;;;;5010800;28;20025;-88
2021/08/27 15:34:58;;;;;;;;;;;;;;;;;;;;;
2021/08/27 15:37:44;;;;;;;6.95;1.23;;;;;;;;;;5044644;28;20040;-87
2021/08/27 15:40:38;;;;;;;7.60;1.52;;;;;;;;;;5010856;28;20030;-86
2021/08/27 15:43:08;;;;;;;3.90;1.23;;;;;;;;;;5014540;28;20042;-91
2021/08/27 15:45:43;;;;;;;16.33;1.88;;;;;;;;;;5028371;28;20025;-86
2021/08/27 15:48:12;;;;;;;6.97;1.40;;;;;;;;;;5033777;28;20070;-86
2021/08/27 15:50:43;;;;;;;4.95;1.00;;;;;;;;;;5026778;28;20064;-87
2021/08/27 15:53:11;;;;;;;4.40;1.38;;;;;;;;;;5010884;28;20043;-88
2021/08/27 15:55:47;;;;;;;3.78;0.93;;;;;;;;;;5028924;28;20261;-88
2021/08/27 15:58:34;;;;;;;1.73;1.00;;;;;;;;;;5044113;28;20069;-90
2021/08/27 16:01:32;;;;;;;5.85;0.98;;;;;;;;;;5035484;28;20652;-89
2021/08/27 16:03:58;;;;;;;6.25;1.00;;;;;;;;;;5029451;28;20080;-87
2021/08/27 16:06:47;;;;;;;4.43;1.13;;;;;;;;;;4993370;28;20037;-87
2021/08/27 16:09:16;;;;;;;9.65;1.33;;;;;;;;;;5036644;28;20076;-92
2021/08/27 16:11:52;;;;;;;5.20;0.95;;;;;;;;;;5042040;28;20032;-87
2021/08/27 16:14:20;;;;;;;2.35;1.00;;;;;;;;;;5034244;28;20025;-89
2021/08/27 16:17:15;;;;;;;5.78;2.65;;;;;;;;;;5036178;28;21681;-91
2021/08/27 16:19:58;;;;;;;13.27;1.00;;;;;;;;;;5029800;28;20041;-88